createdAt,value
2018-08-09T00:00:19.862Z,21.46
2018-08-09T00:01:19.882Z,21.25
2018-08-09T00:02:19.911Z,21.17
2018-08-09T00:03:19.931Z,21.06
2018-08-09T00:04:19.951Z,21.14
2018-08-09T00:05:19.970Z,21.20
2018-08-09T00:06:20.041Z,21.46
2018-08-09T00:07:20.021Z,21.33
2018-08-09T00:08:20.081Z,21.22
2018-08-09T00:09:20.065Z,21.17
2018-08-09T00:10:20.081Z,21.24
2018-08-09T00:11:20.109Z,21.46
2018-08-09T00:12:20.125Z,21.51
2018-08-09T00:13:20.150Z,21.73
2018-08-09T00:14:20.168Z,21.85
2018-08-09T00:15:20.191Z,21.92
2018-08-09T00:16:20.214Z,21.95
2018-08-09T00:17:20.234Z,22.00
2018-08-09T00:18:20.258Z,22.22
2018-08-09T00:19:20.359Z,22.26
2018-08-09T00:20:20.299Z,22.28
2018-08-09T00:21:20.322Z,22.11
2018-08-09T00:22:20.343Z,21.83
2018-08-09T00:23:20.508Z,21.73
2018-08-09T00:24:20.386Z,21.61
2018-08-09T00:25:20.409Z,21.60
2018-08-09T00:26:20.434Z,21.60
2018-08-09T00:27:20.471Z,21.69
2018-08-09T00:28:20.472Z,21.58
2018-08-09T00:29:20.496Z,21.48
2018-08-09T00:30:20.518Z,21.37
2018-08-09T00:31:20.539Z,21.50
2018-08-09T00:32:20.561Z,21.37
2018-08-09T00:33:20.585Z,21.15
2018-08-09T00:34:20.609Z,20.97
2018-08-09T00:35:20.625Z,20.97
2018-08-09T00:36:20.647Z,21.42
2018-08-09T00:37:20.670Z,21.51
2018-08-09T00:38:20.704Z,21.72
2018-08-09T00:39:20.716Z,21.85
2018-08-09T00:40:20.736Z,21.79
2018-08-09T00:41:20.757Z,21.62
2018-08-09T00:42:20.794Z,21.54
2018-08-09T00:43:20.803Z,21.66
2018-08-09T00:44:20.858Z,21.75
2018-08-09T00:45:20.843Z,21.70
2018-08-09T00:46:20.868Z,21.80
2018-08-09T00:47:20.930Z,21.73
2018-08-09T00:48:20.949Z,21.70
2018-08-09T00:49:20.929Z,21.58
2018-08-09T00:50:20.951Z,21.67
2018-08-09T00:51:20.974Z,21.80
2018-08-09T00:52:20.995Z,21.72
2018-08-09T00:53:21.014Z,21.73
2018-08-09T00:54:21.050Z,21.88
2018-08-09T00:55:21.060Z,21.99
2018-08-09T00:56:21.097Z,22.18
2018-08-09T00:57:21.102Z,22.32
2018-08-09T00:58:21.138Z,22.53
2018-08-09T00:59:21.155Z,22.63
2018-08-09T01:00:21.170Z,22.68
2018-08-09T01:01:21.189Z,22.78
2018-08-09T01:02:21.217Z,22.68
2018-08-09T01:03:21.242Z,22.44
2018-08-09T01:04:21.255Z,22.14
2018-08-09T01:05:21.278Z,22.02
2018-08-09T01:06:21.304Z,21.73
2018-08-09T01:07:21.321Z,21.58
2018-08-09T01:08:21.341Z,21.72
2018-08-09T01:09:21.366Z,21.98
2018-08-09T01:10:21.570Z,22.15
2018-08-09T01:11:21.409Z,22.10
2018-08-09T01:12:21.437Z,22.14
2018-08-09T01:13:21.453Z,22.08
2018-08-09T01:14:21.476Z,22.02
2018-08-09T01:15:21.507Z,22.00
2018-08-09T01:16:21.521Z,22.10
2018-08-09T01:17:21.540Z,21.88
2018-08-09T01:18:21.566Z,21.67
2018-08-09T01:19:21.590Z,21.54
2018-08-09T01:20:21.612Z,21.57
2018-08-09T01:21:21.627Z,21.37
2018-08-09T01:22:21.654Z,21.17
2018-08-09T01:23:21.674Z,21.46
2018-08-09T01:24:21.695Z,21.48
2018-08-09T01:25:21.714Z,21.70
2018-08-09T01:26:21.741Z,21.85
2018-08-09T01:27:21.761Z,21.61
2018-08-09T01:28:21.783Z,21.39
2018-08-09T01:29:21.803Z,21.21
2018-08-09T01:30:21.856Z,21.35
2018-08-09T01:31:21.847Z,21.17
2018-08-09T01:32:21.866Z,20.99
2018-08-09T01:33:21.892Z,20.85
2018-08-09T01:34:21.912Z,20.72
2018-08-09T01:35:21.931Z,20.77
2018-08-09T01:36:21.965Z,20.80
2018-08-09T01:37:21.975Z,21.06
2018-08-09T01:38:21.997Z,21.45
2018-08-09T01:39:22.023Z,21.67
2018-08-09T01:40:22.041Z,21.76
2018-08-09T01:41:22.067Z,21.93
2018-08-09T01:42:22.081Z,21.79
2018-08-09T01:43:22.103Z,21.80
2018-08-09T01:44:22.128Z,21.62
2018-08-09T01:45:22.148Z,21.54
2018-08-09T01:46:22.171Z,21.42
2018-08-09T01:47:22.359Z,21.17
2018-08-09T01:48:22.215Z,21.02
2018-08-09T01:49:22.237Z,20.96
2018-08-09T01:50:22.261Z,20.92
2018-08-09T01:51:22.280Z,21.03
2018-08-09T01:52:22.302Z,21.21
2018-08-09T01:53:22.324Z,21.50
2018-08-09T01:54:22.343Z,21.57
2018-08-09T01:55:22.366Z,21.75
2018-08-09T01:56:22.386Z,21.89
2018-08-09T01:57:22.414Z,21.79
2018-08-09T01:58:22.427Z,21.72
2018-08-09T01:59:22.450Z,21.40
2018-08-09T02:00:22.473Z,21.21
2018-08-09T02:01:22.504Z,20.99
2018-08-09T02:02:22.577Z,20.97
2018-08-09T02:03:22.536Z,20.96
2018-08-09T02:04:22.570Z,20.85
2018-08-09T02:05:22.581Z,20.69
2018-08-09T02:06:22.609Z,20.63
2018-08-09T02:07:22.625Z,20.69
2018-08-09T02:08:22.645Z,20.65
2018-08-09T02:09:22.667Z,20.70
2018-08-09T02:10:22.687Z,20.55
2018-08-09T02:11:22.708Z,20.62
2018-08-09T02:12:22.729Z,20.43
2018-08-09T02:13:22.752Z,20.44
2018-08-09T02:14:22.774Z,20.41
2018-08-09T02:15:22.793Z,20.39
2018-08-09T02:16:22.957Z,20.63
2018-08-09T02:17:22.839Z,20.99
2018-08-09T02:18:22.860Z,20.97
2018-08-09T02:19:22.881Z,21.03
2018-08-09T02:20:22.901Z,20.95
2018-08-09T02:21:22.926Z,20.81
2018-08-09T02:22:22.947Z,20.51
2018-08-09T02:23:22.966Z,20.31
2018-08-09T02:24:22.985Z,19.96
2018-08-09T02:25:23.015Z,20.04
2018-08-09T02:26:23.030Z,19.92
2018-08-09T02:27:23.050Z,19.89
2018-08-09T02:28:23.075Z,19.89
2018-08-09T02:29:23.094Z,19.84
2018-08-09T02:30:23.115Z,19.71
2018-08-09T02:31:23.144Z,20.02
2018-08-09T02:32:23.161Z,20.14
2018-08-09T02:33:23.182Z,20.28
2018-08-09T02:34:23.200Z,20.11
2018-08-09T02:35:23.220Z,19.86
2018-08-09T02:36:23.242Z,19.76
2018-08-09T02:37:23.267Z,19.63
2018-08-09T02:38:23.285Z,19.74
2018-08-09T02:39:23.311Z,19.76
2018-08-09T02:40:23.327Z,19.88
2018-08-09T02:41:23.349Z,19.73
2018-08-09T02:42:23.380Z,19.74
2018-08-09T02:43:23.392Z,19.67
2018-08-09T02:44:23.411Z,19.55
2018-08-09T02:45:23.434Z,19.62
2018-08-09T02:46:23.456Z,19.82
2018-08-09T02:47:23.476Z,19.82
2018-08-09T02:48:23.497Z,19.79
2018-08-09T02:49:23.517Z,19.74
2018-08-09T02:50:23.539Z,19.74
2018-08-09T02:51:23.559Z,19.85
2018-08-09T02:52:23.587Z,19.91
2018-08-09T02:53:23.609Z,19.95
2018-08-09T02:54:23.626Z,19.89
2018-08-09T02:55:23.647Z,20.07
2018-08-09T02:56:23.667Z,20.24
2018-08-09T02:57:23.690Z,20.41
2018-08-09T02:58:23.719Z,20.58
2018-08-09T02:59:23.735Z,20.58
2018-08-09T03:00:23.760Z,20.66
2018-08-09T03:01:23.771Z,20.52
2018-08-09T03:02:23.798Z,20.87
2018-08-09T03:03:23.817Z,20.77
2018-08-09T03:04:23.836Z,20.63
2018-08-09T03:05:23.861Z,20.56
2018-08-09T03:06:23.920Z,20.41
2018-08-09T03:07:23.900Z,20.32
2018-08-09T03:08:23.922Z,20.41
2018-08-09T03:09:23.942Z,20.43
2018-08-09T03:10:23.963Z,20.28
2018-08-09T03:11:23.984Z,20.36
2018-08-09T03:12:24.015Z,20.43
2018-08-09T03:13:24.026Z,20.36
2018-08-09T03:14:24.051Z,20.09
2018-08-09T03:15:24.076Z,20.11
2018-08-09T03:16:24.093Z,20.14
2018-08-09T03:17:24.122Z,20.06
2018-08-09T03:18:24.134Z,20.11
2018-08-09T03:19:24.283Z,20.00
2018-08-09T03:20:24.190Z,19.94
2018-08-09T03:21:24.198Z,19.85
2018-08-09T03:22:24.218Z,19.81
2018-08-09T03:23:24.239Z,19.84
2018-08-09T03:24:24.279Z,19.70
2018-08-09T03:25:24.282Z,19.67
2018-08-09T03:26:24.305Z,19.64
2018-08-09T03:27:24.329Z,19.51
2018-08-09T03:28:24.344Z,19.58
2018-08-09T03:29:24.375Z,19.54
2018-08-09T03:30:24.387Z,19.66
2018-08-09T03:31:24.409Z,19.64
2018-08-09T03:32:24.429Z,19.55
2018-08-09T03:33:24.452Z,19.34
2018-08-09T03:34:24.486Z,19.40
2018-08-09T03:35:24.491Z,19.36
2018-08-09T03:36:24.520Z,19.24
2018-08-09T03:37:24.541Z,19.24
2018-08-09T03:38:24.556Z,19.19
2018-08-09T03:39:24.577Z,19.24
2018-08-09T03:40:24.600Z,19.52
2018-08-09T03:41:24.619Z,19.73
2018-08-09T03:42:24.640Z,20.04
2018-08-09T03:43:24.661Z,20.28
2018-08-09T03:44:24.687Z,20.18
2018-08-09T03:45:24.720Z,19.99
2018-08-09T03:46:24.724Z,19.81
2018-08-09T03:47:24.748Z,19.79
2018-08-09T03:48:24.769Z,19.96
2018-08-09T03:49:24.791Z,20.03
2018-08-09T03:50:24.807Z,19.89
2018-08-09T03:51:24.829Z,19.84
2018-08-09T03:52:24.850Z,19.82
2018-08-09T03:53:24.874Z,19.91
2018-08-09T03:54:24.896Z,19.91
2018-08-09T03:55:24.918Z,20.03
2018-08-09T03:56:24.936Z,20.00
2018-08-09T03:57:24.958Z,20.09
2018-08-09T03:58:24.977Z,20.14
2018-08-09T03:59:24.999Z,20.11
2018-08-09T04:00:25.041Z,20.03
2018-08-09T04:01:25.043Z,19.91
2018-08-09T04:02:25.066Z,19.74
2018-08-09T04:03:25.087Z,19.79
2018-08-09T04:04:25.132Z,19.71
2018-08-09T04:05:25.127Z,19.91
2018-08-09T04:06:25.146Z,20.18
2018-08-09T04:07:25.169Z,20.13
2018-08-09T04:08:25.192Z,20.18
2018-08-09T04:09:25.233Z,20.14
2018-08-09T04:10:25.245Z,20.25
2018-08-09T04:11:25.255Z,20.34
2018-08-09T04:12:25.282Z,20.13
2018-08-09T04:13:25.296Z,20.18
2018-08-09T04:14:25.320Z,20.19
2018-08-09T04:15:25.364Z,20.22
2018-08-09T04:16:25.360Z,20.59
2018-08-09T04:17:25.379Z,20.84
2018-08-09T04:18:25.399Z,20.80
2018-08-09T04:19:25.438Z,20.67
2018-08-09T04:20:25.483Z,20.74
2018-08-09T04:21:25.474Z,20.58
2018-08-09T04:22:25.490Z,20.22
2018-08-09T04:23:25.510Z,20.36
2018-08-09T04:24:25.532Z,20.24
2018-08-09T04:25:25.551Z,20.19
2018-08-09T04:26:25.579Z,20.18
2018-08-09T04:27:25.594Z,20.07
2018-08-09T04:28:25.613Z,20.13
2018-08-09T04:29:25.651Z,20.11
2018-08-09T04:30:25.684Z,20.06
2018-08-09T04:31:25.679Z,20.00
2018-08-09T04:32:25.699Z,19.95
2018-08-09T04:33:25.725Z,20.04
2018-08-09T04:34:25.744Z,19.99
2018-08-09T04:35:25.774Z,20.02
2018-08-09T04:36:25.786Z,20.03
2018-08-09T04:37:25.805Z,20.22
2018-08-09T04:38:25.828Z,20.31
2018-08-09T04:39:25.849Z,20.32
2018-08-09T04:40:25.870Z,20.43
2018-08-09T04:41:25.896Z,20.59
2018-08-09T04:42:25.912Z,20.70
2018-08-09T04:43:25.940Z,20.44
2018-08-09T04:44:25.972Z,20.31
2018-08-09T04:45:25.975Z,20.43
2018-08-09T04:46:25.999Z,20.28
2018-08-09T04:47:26.024Z,20.19
2018-08-09T04:48:26.042Z,20.48
2018-08-09T04:49:26.080Z,20.77
2018-08-09T04:50:26.093Z,20.67
2018-08-09T04:51:26.109Z,20.55
2018-08-09T04:52:26.130Z,20.65
2018-08-09T04:53:26.150Z,20.51
2018-08-09T04:54:26.180Z,20.40
2018-08-09T04:55:26.191Z,20.58
2018-08-09T04:56:26.213Z,20.74
2018-08-09T04:57:26.244Z,20.74
2018-08-09T04:58:26.302Z,21.00
2018-08-09T04:59:26.280Z,21.07
2018-08-09T05:00:26.301Z,21.11
2018-08-09T05:01:26.323Z,21.24
2018-08-09T05:02:26.344Z,21.22
2018-08-09T05:03:26.368Z,21.51
2018-08-09T05:04:26.388Z,21.55
2018-08-09T05:05:26.411Z,21.45
2018-08-09T05:06:26.431Z,21.45
2018-08-09T05:07:26.458Z,21.50
2018-08-09T05:08:26.477Z,21.93
2018-08-09T05:09:26.509Z,22.59
2018-08-09T05:10:26.633Z,22.35
2018-08-09T05:11:26.548Z,22.20
2018-08-09T05:12:26.567Z,22.23
2018-08-09T05:13:26.588Z,22.65
2018-08-09T05:14:26.756Z,23.21
2018-08-09T05:15:26.632Z,23.47
2018-08-09T05:16:26.665Z,23.83
2018-08-09T05:17:26.688Z,24.40
2018-08-09T05:18:26.703Z,23.91
2018-08-09T05:19:26.723Z,24.32
2018-08-09T05:20:26.747Z,24.77
2018-08-09T05:21:26.780Z,25.04
2018-08-09T05:22:26.801Z,24.48
2018-08-09T05:23:26.825Z,24.03
2018-08-09T05:24:26.849Z,24.08
2018-08-09T05:25:26.867Z,24.24
2018-08-09T05:26:26.941Z,24.06
2018-08-09T05:27:26.913Z,24.36
2018-08-09T05:28:26.939Z,24.32
2018-08-09T05:29:26.972Z,24.55
2018-08-09T05:30:26.984Z,24.53
2018-08-09T05:31:27.012Z,24.61
2018-08-09T05:32:27.036Z,24.26
2018-08-09T05:33:27.060Z,24.26
2018-08-09T05:34:27.086Z,24.54
2018-08-09T05:35:27.154Z,25.16
2018-08-09T05:36:27.132Z,25.14
2018-08-09T05:37:27.158Z,24.93
2018-08-09T05:38:27.183Z,25.06
2018-08-09T05:39:27.206Z,25.01
2018-08-09T05:40:27.230Z,24.74
2018-08-09T05:41:27.261Z,24.65
2018-08-09T05:42:27.282Z,25.07
2018-08-09T05:43:27.305Z,25.33
2018-08-09T05:44:27.330Z,24.61
2018-08-09T05:45:27.358Z,24.38
2018-08-09T05:46:27.385Z,24.14
2018-08-09T05:47:27.405Z,23.92
2018-08-09T05:48:27.426Z,24.03
2018-08-09T05:49:27.451Z,24.43
2018-08-09T05:50:27.485Z,25.03
2018-08-09T05:51:27.501Z,25.72
2018-08-09T05:52:27.527Z,26.36
2018-08-09T05:53:27.549Z,27.07
2018-08-09T05:54:27.573Z,27.35
2018-08-09T05:55:27.599Z,27.32
2018-08-09T05:56:27.624Z,26.73
2018-08-09T05:57:27.652Z,26.59
2018-08-09T05:58:27.700Z,27.03
2018-08-09T05:59:27.702Z,27.59
2018-08-09T06:00:27.729Z,27.55
2018-08-09T06:01:27.752Z,27.73
2018-08-09T06:02:27.774Z,27.95
2018-08-09T06:03:27.798Z,27.37
2018-08-09T06:04:27.829Z,27.48
2018-08-09T06:05:27.853Z,27.40
2018-08-09T06:06:27.893Z,27.15
2018-08-09T06:07:27.906Z,27.02
2018-08-09T06:08:27.931Z,26.99
2018-08-09T06:09:27.960Z,27.00
2018-08-09T06:10:27.980Z,27.78
2018-08-09T06:11:28.007Z,28.51
2018-08-09T06:12:28.033Z,29.36
2018-08-09T06:13:28.145Z,30.32
2018-08-09T06:14:28.089Z,30.84
2018-08-09T06:15:28.119Z,31.03
2018-08-09T06:16:28.138Z,31.09
2018-08-09T06:17:28.164Z,29.93
2018-08-09T06:18:28.196Z,28.78
2018-08-09T06:19:28.222Z,27.74
2018-08-09T06:20:28.244Z,28.11
2018-08-09T06:21:28.272Z,28.70
2018-08-09T06:22:28.303Z,28.35
2018-08-09T06:23:28.326Z,28.82
2018-08-09T06:24:28.353Z,28.75
2018-08-09T06:25:28.379Z,28.39
2018-08-09T06:26:28.516Z,28.63
2018-08-09T06:27:28.430Z,28.96
2018-08-09T06:28:28.458Z,29.45
2018-08-09T06:29:28.482Z,29.75
2018-08-09T06:30:28.511Z,30.47
2018-08-09T06:31:28.536Z,30.08
2018-08-09T06:32:28.559Z,31.27
2018-08-09T06:33:28.650Z,30.57
2018-08-09T06:34:28.617Z,31.21
2018-08-09T06:35:28.641Z,30.05
2018-08-09T06:36:28.676Z,30.77
2018-08-09T06:37:28.715Z,30.15
2018-08-09T06:38:28.721Z,30.21
2018-08-09T06:39:28.745Z,30.78
2018-08-09T06:40:28.774Z,31.36
2018-08-09T06:41:28.803Z,31.42
2018-08-09T06:42:28.827Z,30.48
2018-08-09T06:43:28.853Z,31.07
2018-08-09T06:44:28.884Z,32.11
2018-08-09T06:45:28.909Z,31.56
2018-08-09T06:46:28.940Z,31.24
2018-08-09T06:47:28.987Z,31.31
2018-08-09T06:48:28.990Z,31.94
2018-08-09T06:49:29.021Z,32.48
2018-08-09T06:50:29.049Z,32.56
2018-08-09T06:51:29.076Z,32.30
2018-08-09T06:52:29.109Z,32.95
2018-08-09T06:53:29.132Z,33.23
2018-08-09T06:54:29.168Z,34.08
2018-08-09T06:55:29.186Z,33.40
2018-08-09T06:56:29.211Z,33.62
2018-08-09T06:57:29.244Z,33.58
2018-08-09T06:58:29.269Z,32.68
2018-08-09T06:59:29.296Z,32.78
2018-08-09T07:00:29.325Z,33.05
2018-08-09T07:01:29.358Z,31.61
2018-08-09T07:02:29.380Z,30.94
2018-08-09T07:03:29.412Z,30.92
2018-08-09T07:04:29.443Z,31.74
2018-08-09T07:05:29.465Z,31.56
2018-08-09T07:06:29.493Z,32.16
2018-08-09T07:07:29.523Z,33.05
2018-08-09T07:08:29.550Z,34.18
2018-08-09T07:09:29.576Z,33.76
2018-08-09T07:10:29.603Z,33.00
2018-08-09T07:11:29.641Z,32.96
2018-08-09T07:12:29.657Z,33.20
2018-08-09T07:13:29.685Z,33.31
2018-08-09T07:14:29.715Z,32.95
2018-08-09T07:15:29.742Z,32.95
2018-08-09T07:16:29.768Z,33.09
2018-08-09T07:17:29.805Z,32.21
2018-08-09T07:18:29.825Z,32.22
2018-08-09T07:19:29.864Z,31.84
2018-08-09T07:20:30.017Z,32.53
2018-08-09T07:21:29.922Z,33.62
2018-08-09T07:22:29.941Z,33.68
2018-08-09T07:23:29.971Z,32.43
2018-08-09T07:24:29.999Z,32.90
2018-08-09T07:25:30.026Z,32.49
2018-08-09T07:26:30.064Z,33.17
2018-08-09T07:27:30.085Z,32.95
2018-08-09T07:28:30.125Z,33.30
2018-08-09T07:29:30.141Z,34.71
2018-08-09T07:30:30.180Z,34.14
2018-08-09T07:31:30.200Z,33.37
2018-08-09T07:32:30.232Z,33.00
2018-08-09T07:33:30.271Z,33.22
2018-08-09T07:34:30.319Z,33.40
2018-08-09T07:35:30.319Z,34.61
2018-08-09T07:36:30.387Z,35.61
2018-08-09T07:37:30.388Z,35.85
2018-08-09T07:38:30.408Z,34.54
2018-08-09T07:39:30.515Z,34.61
2018-08-09T07:40:30.460Z,33.15
2018-08-09T07:41:30.492Z,33.12
2018-08-09T07:42:30.516Z,33.08
2018-08-09T07:43:30.578Z,33.94
2018-08-09T07:44:30.585Z,34.30
2018-08-09T07:45:30.608Z,35.63
2018-08-09T07:46:30.631Z,33.69
2018-08-09T07:47:30.667Z,33.79
2018-08-09T07:48:30.758Z,33.67
2018-08-09T07:49:30.721Z,33.08
2018-08-09T07:50:30.749Z,33.77
2018-08-09T07:51:30.779Z,33.76
2018-08-09T07:52:30.806Z,32.64
2018-08-09T07:53:30.844Z,32.89
2018-08-09T07:54:30.860Z,32.70
2018-08-09T07:55:30.892Z,32.36
2018-08-09T07:56:30.918Z,32.71
2018-08-09T07:57:30.974Z,32.87
2018-08-09T07:58:30.988Z,32.55
2018-08-09T07:59:31.000Z,32.49
2018-08-09T08:00:31.033Z,32.97
2018-08-09T08:01:31.066Z,32.64
2018-08-09T08:02:31.087Z,32.63
2018-08-09T08:03:31.121Z,33.59
2018-08-09T08:04:31.142Z,33.36
2018-08-09T08:05:31.169Z,33.49
2018-08-09T08:06:31.204Z,33.65
2018-08-09T08:07:31.229Z,33.43
2018-08-09T08:08:31.301Z,33.47
2018-08-09T08:09:31.293Z,33.52
2018-08-09T08:10:31.313Z,33.12
2018-08-09T08:11:31.337Z,33.07
2018-08-09T08:12:31.366Z,33.11
2018-08-09T08:13:31.394Z,32.71
2018-08-09T08:14:31.448Z,32.97
2018-08-09T08:15:31.449Z,32.87
2018-08-09T08:16:31.547Z,32.23
2018-08-09T08:17:31.503Z,31.85
2018-08-09T08:18:31.535Z,32.38
2018-08-09T08:19:31.561Z,32.46
2018-08-09T08:20:31.588Z,32.40
2018-08-09T08:21:31.621Z,32.71
2018-08-09T08:22:31.646Z,32.96
2018-08-09T08:23:31.671Z,32.95
2018-08-09T08:24:31.698Z,32.93
2018-08-09T08:25:31.733Z,33.68
2018-08-09T08:26:31.755Z,33.83
2018-08-09T08:27:31.786Z,32.87
2018-08-09T08:28:31.811Z,32.64
2018-08-09T08:29:31.837Z,32.78
2018-08-09T08:30:31.865Z,32.67
2018-08-09T08:31:31.895Z,33.07
2018-08-09T08:32:31.921Z,33.11
2018-08-09T08:33:31.947Z,33.02
2018-08-09T08:34:32.010Z,33.12
2018-08-09T08:35:32.009Z,32.53
2018-08-09T08:36:32.031Z,32.31
2018-08-09T08:37:32.059Z,32.23
2018-08-09T08:38:32.085Z,31.36
2018-08-09T08:39:32.108Z,31.56
2018-08-09T08:40:32.138Z,32.07
2018-08-09T08:41:32.219Z,31.65
2018-08-09T08:42:32.188Z,32.03
2018-08-09T08:43:32.220Z,32.36
2018-08-09T08:44:32.240Z,32.12
2018-08-09T08:45:32.267Z,32.12
2018-08-09T08:46:32.296Z,32.49
2018-08-09T08:47:32.331Z,32.29
2018-08-09T08:48:32.346Z,32.09
2018-08-09T08:49:32.374Z,32.36
2018-08-09T08:50:32.399Z,32.09
2018-08-09T08:51:32.426Z,32.58
2018-08-09T08:52:32.454Z,32.59
2018-08-09T08:53:32.489Z,32.60
2018-08-09T08:54:32.504Z,32.52
2018-08-09T08:55:32.532Z,32.23
2018-08-09T08:56:32.558Z,32.53
2018-08-09T08:57:32.591Z,32.18
2018-08-09T08:58:32.614Z,31.92
2018-08-09T08:59:32.635Z,32.08
2018-08-09T09:00:32.663Z,32.37
2018-08-09T09:01:32.688Z,32.60
2018-08-09T09:02:32.713Z,32.52
2018-08-09T09:03:32.747Z,32.11
2018-08-09T09:04:32.839Z,32.08
2018-08-09T09:05:32.795Z,32.11
2018-08-09T09:06:32.823Z,31.78
2018-08-09T09:07:32.847Z,31.92
2018-08-09T09:08:32.871Z,32.09
2018-08-09T09:09:32.898Z,32.09
2018-08-09T09:10:32.923Z,31.97
2018-08-09T09:11:32.953Z,32.18
2018-08-09T09:12:32.974Z,32.16
2018-08-09T09:13:33.005Z,32.03
2018-08-09T09:14:33.034Z,31.94
2018-08-09T09:15:33.052Z,31.84
2018-08-09T09:16:33.082Z,31.96
2018-08-09T09:17:33.106Z,31.89
2018-08-09T09:18:33.137Z,32.04
2018-08-09T09:19:33.161Z,32.40
2018-08-09T09:20:33.184Z,32.65
2018-08-09T09:21:33.213Z,32.65
2018-08-09T09:22:33.237Z,32.89
2018-08-09T09:23:33.265Z,33.04
2018-08-09T09:24:33.287Z,33.09
2018-08-09T09:25:33.316Z,33.61
2018-08-09T09:26:33.341Z,34.02
2018-08-09T09:27:33.366Z,34.38
2018-08-09T09:28:33.393Z,34.35
2018-08-09T09:29:33.428Z,34.13
2018-08-09T09:30:33.446Z,34.17
2018-08-09T09:31:33.509Z,34.20
2018-08-09T09:32:33.498Z,34.05
2018-08-09T09:33:33.526Z,34.18
2018-08-09T09:34:33.554Z,34.62
2018-08-09T09:35:33.580Z,34.70
2018-08-09T09:36:33.609Z,34.36
2018-08-09T09:37:33.633Z,34.05
2018-08-09T09:38:33.660Z,34.54
2018-08-09T09:39:33.685Z,34.48
2018-08-09T09:40:33.718Z,34.27
2018-08-09T09:41:33.747Z,34.89
2018-08-09T09:42:33.766Z,34.93
2018-08-09T09:43:33.808Z,35.08
2018-08-09T09:44:33.822Z,34.57
2018-08-09T09:45:33.851Z,34.18
2018-08-09T09:46:33.875Z,34.33
2018-08-09T09:47:33.904Z,34.74
2018-08-09T09:48:33.933Z,34.13
2018-08-09T09:49:33.957Z,33.52
2018-08-09T09:50:33.987Z,33.09
2018-08-09T09:51:34.015Z,33.67
2018-08-09T09:52:34.050Z,33.22
2018-08-09T09:53:34.067Z,32.96
2018-08-09T09:54:34.092Z,32.75
2018-08-09T09:55:34.117Z,33.40
2018-08-09T09:56:34.147Z,33.04
2018-08-09T09:57:34.180Z,33.57
2018-08-09T09:58:34.202Z,34.17
2018-08-09T09:59:34.228Z,34.58
2018-08-09T10:00:34.254Z,34.62
2018-08-09T10:01:34.280Z,34.89
2018-08-09T10:02:34.322Z,35.10
2018-08-09T10:03:34.466Z,34.77
2018-08-09T10:04:34.372Z,35.10
2018-08-09T10:05:34.391Z,34.93
2018-08-09T10:06:34.413Z,35.48
2018-08-09T10:07:34.443Z,35.70
2018-08-09T10:08:34.472Z,35.17
2018-08-09T10:09:34.499Z,35.49
2018-08-09T10:10:34.593Z,34.90
2018-08-09T10:11:34.558Z,35.70
2018-08-09T10:12:34.577Z,36.00
2018-08-09T10:13:34.604Z,35.82
2018-08-09T10:14:34.635Z,36.00
2018-08-09T10:15:34.661Z,35.97
2018-08-09T10:16:34.687Z,36.36
2018-08-09T10:17:34.729Z,34.45
2018-08-09T10:18:34.746Z,34.58
2018-08-09T10:19:34.787Z,34.18
2018-08-09T10:20:34.799Z,34.62
2018-08-09T10:21:34.827Z,35.22
2018-08-09T10:22:34.855Z,35.17
2018-08-09T10:23:34.922Z,35.15
2018-08-09T10:24:34.908Z,34.47
2018-08-09T10:25:34.938Z,34.43
2018-08-09T10:26:34.966Z,34.01
2018-08-09T10:27:34.995Z,33.96
2018-08-09T10:28:35.018Z,33.39
2018-08-09T10:29:35.052Z,33.23
2018-08-09T10:30:35.077Z,33.14
2018-08-09T10:31:35.101Z,33.12
2018-08-09T10:32:35.127Z,33.45
2018-08-09T10:33:35.153Z,33.81
2018-08-09T10:34:35.186Z,33.90
2018-08-09T10:35:35.244Z,33.65
2018-08-09T10:36:35.243Z,33.83
2018-08-09T10:37:35.262Z,33.47
2018-08-09T10:38:35.288Z,33.34
2018-08-09T10:39:35.321Z,33.57
2018-08-09T10:40:35.339Z,34.14
2018-08-09T10:41:35.372Z,34.74
2018-08-09T10:42:35.399Z,34.06
2018-08-09T10:43:35.425Z,34.18
2018-08-09T10:44:35.453Z,34.54
2018-08-09T10:45:35.474Z,34.24
2018-08-09T10:46:35.502Z,34.20
2018-08-09T10:47:35.529Z,34.51
2018-08-09T10:48:35.555Z,34.21
2018-08-09T10:49:35.589Z,33.96
2018-08-09T10:50:35.608Z,34.77
2018-08-09T10:51:35.633Z,34.18
2018-08-09T10:52:35.663Z,33.43
2018-08-09T10:53:35.690Z,33.57
2018-08-09T10:54:35.716Z,33.46
2018-08-09T10:55:35.822Z,32.86
2018-08-09T10:56:35.769Z,33.55
2018-08-09T10:57:35.795Z,33.36
2018-08-09T10:58:35.825Z,33.49
2018-08-09T10:59:35.850Z,34.16
2018-08-09T11:00:35.875Z,34.05
2018-08-09T11:01:35.902Z,34.03
2018-08-09T11:02:35.928Z,33.77
2018-08-09T11:03:35.954Z,33.58
2018-08-09T11:04:35.989Z,33.52
2018-08-09T11:05:36.015Z,33.14
2018-08-09T11:06:36.032Z,33.32
2018-08-09T11:07:36.059Z,33.58
2018-08-09T11:08:36.100Z,33.84
2018-08-09T11:09:36.122Z,34.39
2018-08-09T11:10:36.137Z,34.27
2018-08-09T11:11:36.164Z,34.18
2018-08-09T11:12:36.193Z,33.65
2018-08-09T11:13:36.219Z,33.59
2018-08-09T11:14:36.247Z,33.65
2018-08-09T11:15:36.272Z,33.24
2018-08-09T11:16:36.299Z,33.39
2018-08-09T11:17:36.324Z,33.68
2018-08-09T11:18:36.350Z,33.64
2018-08-09T11:19:36.374Z,33.49
2018-08-09T11:20:36.403Z,33.53
2018-08-09T11:21:36.437Z,33.77
2018-08-09T11:22:36.456Z,33.76
2018-08-09T11:23:36.513Z,33.81
2018-08-09T11:24:36.505Z,34.14
2018-08-09T11:25:36.534Z,34.67
2018-08-09T11:26:36.563Z,34.52
2018-08-09T11:27:36.587Z,35.08
2018-08-09T11:28:36.611Z,34.73
2018-08-09T11:29:36.645Z,34.95
2018-08-09T11:30:36.666Z,35.04
2018-08-09T11:31:36.694Z,35.70
2018-08-09T11:32:36.721Z,35.08
2018-08-09T11:33:36.748Z,34.75
2018-08-09T11:34:36.778Z,34.99
2018-08-09T11:35:36.800Z,34.92
2018-08-09T11:36:36.825Z,34.92
2018-08-09T11:37:36.853Z,35.18
2018-08-09T11:38:36.884Z,34.90
2018-08-09T11:39:36.908Z,34.75
2018-08-09T11:40:36.931Z,34.38
2018-08-09T11:41:36.961Z,34.90
2018-08-09T11:42:36.989Z,34.73
2018-08-09T11:43:37.016Z,35.33
2018-08-09T11:44:37.045Z,34.71
2018-08-09T11:45:37.068Z,34.70
2018-08-09T11:46:37.093Z,35.24
2018-08-09T11:47:37.120Z,35.37
2018-08-09T11:48:37.147Z,35.58
2018-08-09T11:49:37.185Z,35.82
2018-08-09T11:50:37.202Z,36.24
2018-08-09T11:51:37.233Z,35.61
2018-08-09T11:52:37.255Z,35.97
2018-08-09T11:53:37.296Z,36.28
2018-08-09T11:54:37.313Z,36.01
2018-08-09T11:55:37.336Z,35.80
2018-08-09T11:56:37.433Z,35.58
2018-08-09T11:57:37.390Z,35.46
2018-08-09T11:58:37.418Z,34.86
2018-08-09T11:59:37.448Z,34.81
2018-08-09T12:00:37.471Z,35.19
2018-08-09T12:01:37.542Z,35.45
2018-08-09T12:02:37.525Z,35.05
2018-08-09T12:03:37.555Z,34.73
2018-08-09T12:04:37.635Z,34.74
2018-08-09T12:05:37.607Z,34.71
2018-08-09T12:06:37.645Z,34.96
2018-08-09T12:07:37.661Z,35.15
2018-08-09T12:08:37.690Z,35.76
2018-08-09T12:09:37.716Z,35.73
2018-08-09T12:10:37.742Z,35.74
2018-08-09T12:11:37.772Z,36.12
2018-08-09T12:12:37.804Z,36.57
2018-08-09T12:13:37.897Z,36.00
2018-08-09T12:14:37.851Z,35.60
2018-08-09T12:15:37.878Z,35.61
2018-08-09T12:16:37.912Z,34.93
2018-08-09T12:17:37.959Z,35.55
2018-08-09T12:18:37.970Z,36.00
2018-08-09T12:19:37.986Z,36.36
2018-08-09T12:20:38.051Z,36.73
2018-08-09T12:21:38.167Z,36.31
2018-08-09T12:22:38.105Z,36.05
2018-08-09T12:23:38.109Z,35.56
2018-08-09T12:24:38.129Z,35.67
2018-08-09T12:25:38.150Z,35.70
2018-08-09T12:26:38.181Z,35.70
2018-08-09T12:27:38.210Z,34.97
2018-08-09T12:28:38.233Z,35.19
2018-08-09T12:29:38.354Z,35.18
2018-08-09T12:30:38.289Z,35.55
2018-08-09T12:31:38.317Z,35.26
2018-08-09T12:32:38.346Z,35.44
2018-08-09T12:33:38.373Z,35.56
2018-08-09T12:34:38.396Z,35.29
2018-08-09T12:35:38.423Z,35.79
2018-08-09T12:36:38.514Z,35.89
2018-08-09T12:37:38.505Z,35.80
2018-08-09T12:38:38.504Z,35.88
2018-08-09T12:39:38.533Z,35.71
2018-08-09T12:40:38.565Z,35.53
2018-08-09T12:41:38.585Z,35.78
2018-08-09T12:42:38.614Z,35.49
2018-08-09T12:43:38.641Z,35.80
2018-08-09T12:44:38.666Z,35.74
2018-08-09T12:45:38.750Z,35.51
2018-08-09T12:46:38.721Z,35.76
2018-08-09T12:47:38.867Z,35.70
2018-08-09T12:48:38.786Z,36.02
2018-08-09T12:49:38.812Z,36.65
2018-08-09T12:50:38.849Z,37.03
2018-08-09T12:51:38.892Z,36.67
2018-08-09T12:52:38.883Z,36.36